Cropsey, Illinois
Current Conditions -  °F | °C
As of 3:35 AM on Thursday 27 Nov 2014 (Local Time) from KPNT Reporting Station
Haze Haze  
Wind Chill: 11°   Ceiling: 9500
Heat Index: 23°   Visibility: 5mi
Dew Point: 21°   Wind: 13mph
Humidity: 91%   Direction: 300°WNW
Pressure: 30.28"   Gusts: NA
Location:  40.61°N, 88.48°W
Report Text: KPNT 270935Z AUTO 30011KT 5SM BR SCT036 OVC095 M05/M06 A3028 RMK AO2 T10491062
Loading
Personal Weather Stations






























Interactive Weather Map New forecast layout! Learn more

10-Day Weather Forecast

Advertisements
Track Severe Weather on mobile